Marble, Colorado
Current Conditions -  °F | °C
As of 2:53 AM on Saturday 20 Dec 2014 (Local Time) from KASE Reporting Station
Clear Clear  
Wind Chill:   Ceiling: Unl
Heat Index: 13°   Visibility: 10mi
Dew Point:   Wind: 6mph
Humidity: 81%   Direction: 330°NNW
Pressure: 30.15"   Gusts: NA
Location:  39.2397°N, 107.215°W
Report Text: KASE 200953Z 33005KT 10SM CLR M11/M13 A3015 RMK AO2 SLP226 T11061133
Loading
Personal Weather Stations






























Interactive Weather Map New forecast layout! Learn more

10-Day Weather Forecast

Advertisements
Track Severe Weather on mobile